Flight Track Log - Related Links

Times and Time Zones

All times are in EDT time to prevent confusion due to time zone crossing. See the N171TS flight status page for this flight to view local times or setup timezone preferences in your user account.

Time Position Orientation Groundspeed Altitude Reporting Facility
EDT Latitude Longitude Course Direction KTS MPH feet Rate Location/Type
Sat 02:36:36 PM 42.6167 -87.9667 270° West 116 133 2,700  Level KMKE
Sat 02:37:06 PM 42.6161 -87.9894 268° West 131 151 3,200 652 Climbing Chicago Center
Sat 02:38:08 PM 42.5861 -87.9975 191° South 113 130 3,700 339 Climbing Chicago Center
Sat 02:39:10 PM 42.5478 -88.0111 195° South 134 154 3,900 48 Climbing Chicago Center
Sat 02:40:12 PM 42.5081 -88.0356 204° Southwest 147 169 3,800 -48 Descending Chicago Center
Sat 02:41:14 PM 42.4678 -88.0572 202° Southwest 152 175 3,800  Level Chicago Center
Sat 02:42:16 PM 42.4267 -88.0764 199° South 156 180 3,800 -97 Level Chicago Center
Sat 02:43:18 PM 42.3781 -88.0986 199° South 158 182 3,600 -387 Descending Chicago Center
Sat 02:44:20 PM 42.3367 -88.1250 205° Southwest 160 184 3,000 -390 Descending Chicago Center
Sat 02:45:21 PM 42.2975 -88.1486 204° Southwest 158 182 2,800 -49 Descending Chicago Center
Sat 02:46:23 PM 42.2617 -88.1706 204° Southwest 151 174 2,900 48 Climbing Chicago Center
Sat 02:47:25 PM 42.2253 -88.1881 200° South 145 167 2,900 -48 Level Chicago Center
Sat 02:48:27 PM 42.1869 -88.2022 195° South 144 166 2,800  Descending Chicago Center
Sat 02:49:29 PM 42.1419 -88.2233 199° South 143 165 2,900  Climbing Chicago Center
Sat 02:50:31 PM 42.1064 -88.2431 202° Southwest 142 163 2,800 -48 Descending Chicago Center
Sat 02:51:33 PM 42.0697 -88.2611 200° South 141 162 2,800 48 Level Chicago Center
Sat 02:52:35 PM 42.0364 -88.2858 209° Southwest 143 165 2,900 48 Climbing Chicago Center
Sat 02:53:37 PM 42.0281 -88.3353 257° West 138 159 2,900  Level Chicago Center
Sat 02:54:39 PM 42.0136 -88.3947 252° West 141 162 2,900  Level Chicago Center
Sat 02:55:41 PM 42.0028 -88.4436 253° West 139 160 2,900  Level Chicago Center
Sat 02:56:43 PM 41.9686 -88.4644 204° Southwest 149 171 2,900 -48 Level Chicago Center
Sat 02:57:45 PM 41.9286 -88.4547 170° South 150 173 2,800 -48 Descending Chicago Center
Sat 02:58:47 PM 41.9250 -88.3922 94° East 163 188 2,800 -48 Level Chicago Center
Sat 02:59:49 PM 41.9181 -88.3414 100° East 155 178 2,700 -774 Descending Chicago Center
Sat 03:00:51 PM 41.9150 -88.2878 94° East 134 154 1,200 -823 Descending Chicago Center
Sat 03:01:53 PM 41.9225 -88.2544 73° East 116 133 1,000 -194 Descending Chicago Center

Login

Don't have an account? Register now (free) for customized features, flight alerts, and more!